Home > Products > Valid Products > FWO

000
SHUS65 KGJT 242015
FWOGJT

DAILY FIRE WEATHER OBSERVATION
NATIONAL WEATHER SERVICE GRAND JUNCTION CO
212 PM MDT FRI APR 24 2015

STATE OF THE WEATHER (W)               9
DRY BULB TEMPERATURE                   57   DEGREES FAHRENHEIT
RELATIVE HUMIDITY (RH)                 42   PERCENT
LIGHTNING ACTIVITY LEVEL
  (LAL - MIDNIGHT TO 2 PM)             4
WIND DIRECTION                         270  DEGREES (C IF CALM)
WIND SPEED                             9    MPH
MAX TEMP (2 PM - 2 PM)                 69   DEGREES FAHRENHEIT
MIN TEMP (2 PM - 2 PM)                 43   DEGREES FAHRENHEIT
MAX RH (2 PM - 2 PM)                   65   PERCENT
MIN RH (2 PM - 2 PM)                   16   PERCENT
PCPN DURATION                          0.5  HOURS
PCPN AMT (2 PM - 2 PM)                 0.02 INCHES
LAL (2 PM - 2 PM)                      4

$$

METAR KGJT 241953Z 25008KT 10SM TS FEW055 SCT070 BKN095 14/01
      A2973 RMK AO2 WSHFT 1853 LTG DSNT NE RAB31E50 TSB31 SLP028
      TS OHD MOV NE OCNL LTGICCC P0002 T01390011





000
SHUS65 KGJT 242015
FWOGJT

DAILY FIRE WEATHER OBSERVATION
NATIONAL WEATHER SERVICE GRAND JUNCTION CO
212 PM MDT FRI APR 24 2015

STATE OF THE WEATHER (W)               9
DRY BULB TEMPERATURE                   57   DEGREES FAHRENHEIT
RELATIVE HUMIDITY (RH)                 42   PERCENT
LIGHTNING ACTIVITY LEVEL
  (LAL - MIDNIGHT TO 2 PM)             4
WIND DIRECTION                         270  DEGREES (C IF CALM)
WIND SPEED                             9    MPH
MAX TEMP (2 PM - 2 PM)                 69   DEGREES FAHRENHEIT
MIN TEMP (2 PM - 2 PM)                 43   DEGREES FAHRENHEIT
MAX RH (2 PM - 2 PM)                   65   PERCENT
MIN RH (2 PM - 2 PM)                   16   PERCENT
PCPN DURATION                          0.5  HOURS
PCPN AMT (2 PM - 2 PM)                 0.02 INCHES
LAL (2 PM - 2 PM)                      4

$$

METAR KGJT 241953Z 25008KT 10SM TS FEW055 SCT070 BKN095 14/01
      A2973 RMK AO2 WSHFT 1853 LTG DSNT NE RAB31E50 TSB31 SLP028
      TS OHD MOV NE OCNL LTGICCC P0002 T01390011




000
SHUS65 KGJT 232028 CCA
FWOGJT

DAILY FIRE WEATHER OBSERVATION...CORRECTED PCPN DURATION
NATIONAL WEATHER SERVICE GRAND JUNCTION CO
212 PM MDT THU APR 23 2015

STATE OF THE WEATHER (W)               1
DRY BULB TEMPERATURE                   67   DEGREES FAHRENHEIT
RELATIVE HUMIDITY (RH)                 20   PERCENT
LIGHTNING ACTIVITY LEVEL
  (LAL - MIDNIGHT TO 2 PM)             1
WIND DIRECTION                         360  DEGREES (C IF CALM)
WIND SPEED                             12   MPH
MAX TEMP (2 PM - 2 PM)                 67   DEGREES FAHRENHEIT
MIN TEMP (2 PM - 2 PM)                 43   DEGREES FAHRENHEIT
MAX RH (2 PM - 2 PM)                   76   PERCENT
MIN RH (2 PM - 2 PM)                   20   PERCENT
PCPN DURATION                          4.0  HOURS
PCPN AMT (2 PM - 2 PM)                 T    INCHES
LAL (2 PM - 2 PM)                      4

$$

METAR KGJT 231953Z 34010KT 290V360 10SM FEW110 19/M04 A2982 RMK
      AO2 SLP056 T01941044




000
SHUS65 KGJT 232028 CCA
FWOGJT

DAILY FIRE WEATHER OBSERVATION...CORRECTED PCPN DURATION
NATIONAL WEATHER SERVICE GRAND JUNCTION CO
212 PM MDT THU APR 23 2015

STATE OF THE WEATHER (W)               1
DRY BULB TEMPERATURE                   67   DEGREES FAHRENHEIT
RELATIVE HUMIDITY (RH)                 20   PERCENT
LIGHTNING ACTIVITY LEVEL
  (LAL - MIDNIGHT TO 2 PM)             1
WIND DIRECTION                         360  DEGREES (C IF CALM)
WIND SPEED                             12   MPH
MAX TEMP (2 PM - 2 PM)                 67   DEGREES FAHRENHEIT
MIN TEMP (2 PM - 2 PM)                 43   DEGREES FAHRENHEIT
MAX RH (2 PM - 2 PM)                   76   PERCENT
MIN RH (2 PM - 2 PM)                   20   PERCENT
PCPN DURATION                          4.0  HOURS
PCPN AMT (2 PM - 2 PM)                 T    INCHES
LAL (2 PM - 2 PM)                      4

$$

METAR KGJT 231953Z 34010KT 290V360 10SM FEW110 19/M04 A2982 RMK
      AO2 SLP056 T01941044





000
SHUS65 KGJT 232018
FWOGJT

DAILY FIRE WEATHER OBSERVATION
NATIONAL WEATHER SERVICE GRAND JUNCTION CO
212 PM MDT THU APR 23 2015

STATE OF THE WEATHER (W)               1
DRY BULB TEMPERATURE                   67   DEGREES FAHRENHEIT
RELATIVE HUMIDITY (RH)                 20   PERCENT
LIGHTNING ACTIVITY LEVEL
  (LAL - MIDNIGHT TO 2 PM)             1
WIND DIRECTION                         360  DEGREES (C IF CALM)
WIND SPEED                             12   MPH
MAX TEMP (2 PM - 2 PM)                 67   DEGREES FAHRENHEIT
MIN TEMP (2 PM - 2 PM)                 43   DEGREES FAHRENHEIT
MAX RH (2 PM - 2 PM)                   76   PERCENT
MIN RH (2 PM - 2 PM)                   20   PERCENT
PCPN DURATION                          -5.6 HOURS
PCPN AMT (2 PM - 2 PM)                 T    INCHES
LAL (2 PM - 2 PM)                      4

$$

METAR KGJT 231953Z 34010KT 290V360 10SM FEW110 19/M04 A2982 RMK
      AO2 SLP056 T01941044




000
SHUS65 KGJT 232018
FWOGJT

DAILY FIRE WEATHER OBSERVATION
NATIONAL WEATHER SERVICE GRAND JUNCTION CO
212 PM MDT THU APR 23 2015

STATE OF THE WEATHER (W)               1
DRY BULB TEMPERATURE                   67   DEGREES FAHRENHEIT
RELATIVE HUMIDITY (RH)                 20   PERCENT
LIGHTNING ACTIVITY LEVEL
  (LAL - MIDNIGHT TO 2 PM)             1
WIND DIRECTION                         360  DEGREES (C IF CALM)
WIND SPEED                             12   MPH
MAX TEMP (2 PM - 2 PM)                 67   DEGREES FAHRENHEIT
MIN TEMP (2 PM - 2 PM)                 43   DEGREES FAHRENHEIT
MAX RH (2 PM - 2 PM)                   76   PERCENT
MIN RH (2 PM - 2 PM)                   20   PERCENT
PCPN DURATION                          -5.6 HOURS
PCPN AMT (2 PM - 2 PM)                 T    INCHES
LAL (2 PM - 2 PM)                      4

$$

METAR KGJT 231953Z 34010KT 290V360 10SM FEW110 19/M04 A2982 RMK
      AO2 SLP056 T01941044





000
SHUS65 KGJT 232018
FWOGJT

DAILY FIRE WEATHER OBSERVATION
NATIONAL WEATHER SERVICE GRAND JUNCTION CO
212 PM MDT THU APR 23 2015

STATE OF THE WEATHER (W)               1
DRY BULB TEMPERATURE                   67   DEGREES FAHRENHEIT
RELATIVE HUMIDITY (RH)                 20   PERCENT
LIGHTNING ACTIVITY LEVEL
  (LAL - MIDNIGHT TO 2 PM)             1
WIND DIRECTION                         360  DEGREES (C IF CALM)
WIND SPEED                             12   MPH
MAX TEMP (2 PM - 2 PM)                 67   DEGREES FAHRENHEIT
MIN TEMP (2 PM - 2 PM)                 43   DEGREES FAHRENHEIT
MAX RH (2 PM - 2 PM)                   76   PERCENT
MIN RH (2 PM - 2 PM)                   20   PERCENT
PCPN DURATION                          -5.6 HOURS
PCPN AMT (2 PM - 2 PM)                 T    INCHES
LAL (2 PM - 2 PM)                      4

$$

METAR KGJT 231953Z 34010KT 290V360 10SM FEW110 19/M04 A2982 RMK
      AO2 SLP056 T01941044




000
SHUS65 KGJT 222023
FWOGJT

DAILY FIRE WEATHER OBSERVATION
NATIONAL WEATHER SERVICE GRAND JUNCTION CO
223 PM MDT WED APR 22 2015

STATE OF THE WEATHER (W)               1
DRY BULB TEMPERATURE                   66   DEGREES FAHRENHEIT
RELATIVE HUMIDITY (RH)                 28   PERCENT
LIGHTNING ACTIVITY LEVEL
  (LAL - MIDNIGHT TO 2 PM)             1
WIND DIRECTION                         C    DEGREES (C IF CALM)
WIND SPEED                             0    MPH
MAX TEMP (2 PM - 2 PM)                 72   DEGREES FAHRENHEIT
MIN TEMP (2 PM - 2 PM)                 42   DEGREES FAHRENHEIT
MAX RH (2 PM - 2 PM)                   65   PERCENT
MIN RH (2 PM - 2 PM)                   17   PERCENT
PCPN DURATION                          0.0  HOURS
PCPN AMT (2 PM - 2 PM)                 0.0  INCHES
LAL (2 PM - 2 PM)                      1

$$

METAR KGJT 221953Z VRB03KT 10SM CLR 19/00 A2986 RMK AO2 SLP065
      T01890000




000
SHUS65 KGJT 222023
FWOGJT

DAILY FIRE WEATHER OBSERVATION
NATIONAL WEATHER SERVICE GRAND JUNCTION CO
223 PM MDT WED APR 22 2015

STATE OF THE WEATHER (W)               1
DRY BULB TEMPERATURE                   66   DEGREES FAHRENHEIT
RELATIVE HUMIDITY (RH)                 28   PERCENT
LIGHTNING ACTIVITY LEVEL
  (LAL - MIDNIGHT TO 2 PM)             1
WIND DIRECTION                         C    DEGREES (C IF CALM)
WIND SPEED                             0    MPH
MAX TEMP (2 PM - 2 PM)                 72   DEGREES FAHRENHEIT
MIN TEMP (2 PM - 2 PM)                 42   DEGREES FAHRENHEIT
MAX RH (2 PM - 2 PM)                   65   PERCENT
MIN RH (2 PM - 2 PM)                   17   PERCENT
PCPN DURATION                          0.0  HOURS
PCPN AMT (2 PM - 2 PM)                 0.0  INCHES
LAL (2 PM - 2 PM)                      1

$$

METAR KGJT 221953Z VRB03KT 10SM CLR 19/00 A2986 RMK AO2 SLP065
      T01890000





000
SHUS65 KGJT 222023
FWOGJT

DAILY FIRE WEATHER OBSERVATION
NATIONAL WEATHER SERVICE GRAND JUNCTION CO
223 PM MDT WED APR 22 2015

STATE OF THE WEATHER (W)               1
DRY BULB TEMPERATURE                   66   DEGREES FAHRENHEIT
RELATIVE HUMIDITY (RH)                 28   PERCENT
LIGHTNING ACTIVITY LEVEL
  (LAL - MIDNIGHT TO 2 PM)             1
WIND DIRECTION                         C    DEGREES (C IF CALM)
WIND SPEED                             0    MPH
MAX TEMP (2 PM - 2 PM)                 72   DEGREES FAHRENHEIT
MIN TEMP (2 PM - 2 PM)                 42   DEGREES FAHRENHEIT
MAX RH (2 PM - 2 PM)                   65   PERCENT
MIN RH (2 PM - 2 PM)                   17   PERCENT
PCPN DURATION                          0.0  HOURS
PCPN AMT (2 PM - 2 PM)                 0.0  INCHES
LAL (2 PM - 2 PM)                      1

$$

METAR KGJT 221953Z VRB03KT 10SM CLR 19/00 A2986 RMK AO2 SLP065
      T01890000




000
SHUS65 KGJT 222023
FWOGJT

DAILY FIRE WEATHER OBSERVATION
NATIONAL WEATHER SERVICE GRAND JUNCTION CO
223 PM MDT WED APR 22 2015

STATE OF THE WEATHER (W)               1
DRY BULB TEMPERATURE                   66   DEGREES FAHRENHEIT
RELATIVE HUMIDITY (RH)                 28   PERCENT
LIGHTNING ACTIVITY LEVEL
  (LAL - MIDNIGHT TO 2 PM)             1
WIND DIRECTION                         C    DEGREES (C IF CALM)
WIND SPEED                             0    MPH
MAX TEMP (2 PM - 2 PM)                 72   DEGREES FAHRENHEIT
MIN TEMP (2 PM - 2 PM)                 42   DEGREES FAHRENHEIT
MAX RH (2 PM - 2 PM)                   65   PERCENT
MIN RH (2 PM - 2 PM)                   17   PERCENT
PCPN DURATION                          0.0  HOURS
PCPN AMT (2 PM - 2 PM)                 0.0  INCHES
LAL (2 PM - 2 PM)                      1

$$

METAR KGJT 221953Z VRB03KT 10SM CLR 19/00 A2986 RMK AO2 SLP065
      T01890000





    US Dept of Commerce
    National Oceanic and Atmospheric Administration
    National Weather Service
    1325 East West Highway
    Silver Spring, MD 20910
    Page Author: NWS Internet Services Team
Disclaimer
Information Quality
Credits
Glossary
Privacy Policy
Freedom of Information Act (FOIA)
About Us
Career Opportunities